sensor_id;sensor_type;location;lat;lon;timestamp;temperature;humidity
23069;DHT22;11702;50.856;4.348;2022-07-06T00:00:33;14.80;99.90
23069;DHT22;11702;50.856;4.348;2022-07-06T00:02:59;14.80;99.90
23069;DHT22;11702;50.856;4.348;2022-07-06T00:05:25;14.70;99.90
23069;DHT22;11702;50.856;4.348;2022-07-06T00:07:51;14.70;99.90
23069;DHT22;11702;50.856;4.348;2022-07-06T00:10:17;14.70;99.90
23069;DHT22;11702;50.856;4.348;2022-07-06T00:12:43;14.80;99.90
23069;DHT22;11702;50.856;4.348;2022-07-06T00:15:09;14.60;99.90
23069;DHT22;11702;50.856;4.348;2022-07-06T00:17:34;14.60;99.90
23069;DHT22;11702;50.856;4.348;2022-07-06T00:20:00;14.60;99.90
23069;DHT22;11702;50.856;4.348;2022-07-06T00:22:26;14.60;99.90
23069;DHT22;11702;50.856;4.348;2022-07-06T00:24:51;14.50;99.90
23069;DHT22;11702;50.856;4.348;2022-07-06T00:27:17;14.50;99.90
23069;DHT22;11702;50.856;4.348;2022-07-06T00:29:42;14.50;99.90
23069;DHT22;11702;50.856;4.348;2022-07-06T00:32:10;14.50;99.90
23069;DHT22;11702;50.856;4.348;2022-07-06T00:34:37;14.50;99.90
23069;DHT22;11702;50.856;4.348;2022-07-06T00:37:05;14.50;99.90
23069;DHT22;11702;50.856;4.348;2022-07-06T00:39:31;14.50;99.90
23069;DHT22;11702;50.856;4.348;2022-07-06T00:41:57;14.50;99.90
23069;DHT22;11702;50.856;4.348;2022-07-06T00:44:22;14.50;99.90
23069;DHT22;11702;50.856;4.348;2022-07-06T00:46:48;14.60;99.90
23069;DHT22;11702;50.856;4.348;2022-07-06T00:49:14;14.60;99.90
23069;DHT22;11702;50.856;4.348;2022-07-06T00:51:58;14.50;99.90
23069;DHT22;11702;50.856;4.348;2022-07-06T00:54:26;14.50;99.90
23069;DHT22;11702;50.856;4.348;2022-07-06T00:56:52;14.50;99.90
23069;DHT22;11702;50.856;4.348;2022-07-06T00:59:18;14.50;99.90
23069;DHT22;11702;50.856;4.348;2022-07-06T01:01:44;14.40;99.90
23069;DHT22;11702;50.856;4.348;2022-07-06T01:04:09;14.40;99.90
23069;DHT22;11702;50.856;4.348;2022-07-06T01:06:35;14.40;99.90
23069;DHT22;11702;50.856;4.348;2022-07-06T01:09:02;14.30;99.90
23069;DHT22;11702;50.856;4.348;2022-07-06T01:11:28;14.30;99.90
23069;DHT22;11702;50.856;4.348;2022-07-06T01:13:54;14.30;99.90
23069;DHT22;11702;50.856;4.348;2022-07-06T01:16:21;14.30;99.90
23069;DHT22;11702;50.856;4.348;2022-07-06T01:18:47;14.30;99.90
23069;DHT22;11702;50.856;4.348;2022-07-06T01:21:14;14.20;99.90
23069;DHT22;11702;50.856;4.348;2022-07-06T01:23:44;14.20;99.90
23069;DHT22;11702;50.856;4.348;2022-07-06T01:26:15;14.20;99.90
23069;DHT22;11702;50.856;4.348;2022-07-06T01:28:41;14.20;99.90
23069;DHT22;11702;50.856;4.348;2022-07-06T01:31:23;14.20;99.90
23069;DHT22;11702;50.856;4.348;2022-07-06T01:33:51;14.10;99.90
23069;DHT22;11702;50.856;4.348;2022-07-06T01:36:16;14.10;99.90
23069;DHT22;11702;50.856;4.348;2022-07-06T01:38:56;14.00;99.90
23069;DHT22;11702;50.856;4.348;2022-07-06T01:41:25;14.00;99.90
23069;DHT22;11702;50.856;4.348;2022-07-06T01:43:50;14.00;99.90
23069;DHT22;11702;50.856;4.348;2022-07-06T01:46:16;14.00;99.90
23069;DHT22;11702;50.856;4.348;2022-07-06T01:48:43;13.90;99.90
23069;DHT22;11702;50.856;4.348;2022-07-06T01:51:08;14.00;99.90
23069;DHT22;11702;50.856;4.348;2022-07-06T01:53:34;13.90;99.90
23069;DHT22;11702;50.856;4.348;2022-07-06T01:56:00;13.90;99.90
23069;DHT22;11702;50.856;4.348;2022-07-06T01:58:29;13.90;99.90
23069;DHT22;11702;50.856;4.348;2022-07-06T02:00:54;13.80;99.90
23069;DHT22;11702;50.856;4.348;2022-07-06T02:03:20;13.80;99.90
23069;DHT22;11702;50.856;4.348;2022-07-06T02:05:45;13.90;99.90
23069;DHT22;11702;50.856;4.348;2022-07-06T02:08:11;13.80;99.90
23069;DHT22;11702;50.856;4.348;2022-07-06T02:10:36;13.80;99.90
23069;DHT22;11702;50.856;4.348;2022-07-06T02:13:02;13.80;99.90
23069;DHT22;11702;50.856;4.348;2022-07-06T02:15:28;13.80;99.90
23069;DHT22;11702;50.856;4.348;2022-07-06T02:17:53;13.70;99.90
23069;DHT22;11702;50.856;4.348;2022-07-06T02:20:19;13.60;99.90
23069;DHT22;11702;50.856;4.348;2022-07-06T02:22:45;13.60;99.90
23069;DHT22;11702;50.856;4.348;2022-07-06T02:25:11;13.50;99.90
23069;DHT22;11702;50.856;4.348;2022-07-06T02:27:36;13.50;99.90
23069;DHT22;11702;50.856;4.348;2022-07-06T02:30:03;13.50;99.90
23069;DHT22;11702;50.856;4.348;2022-07-06T02:32:29;13.50;99.90
23069;DHT22;11702;50.856;4.348;2022-07-06T02:34:55;13.40;99.90
23069;DHT22;11702;50.856;4.348;2022-07-06T02:37:21;13.40;99.90
23069;DHT22;11702;50.856;4.348;2022-07-06T02:39:47;13.40;99.90
23069;DHT22;11702;50.856;4.348;2022-07-06T02:42:13;13.40;99.90
23069;DHT22;11702;50.856;4.348;2022-07-06T02:44:38;13.40;99.90
23069;DHT22;11702;50.856;4.348;2022-07-06T02:47:04;13.40;99.90
23069;DHT22;11702;50.856;4.348;2022-07-06T02:49:29;13.30;99.90
23069;DHT22;11702;50.856;4.348;2022-07-06T02:51:55;13.30;99.90
23069;DHT22;11702;50.856;4.348;2022-07-06T02:54:21;13.30;99.90
23069;DHT22;11702;50.856;4.348;2022-07-06T02:56:46;13.30;99.90
23069;DHT22;11702;50.856;4.348;2022-07-06T02:59:16;13.30;99.90
23069;DHT22;11702;50.856;4.348;2022-07-06T03:01:42;13.30;99.90
23069;DHT22;11702;50.856;4.348;2022-07-06T03:04:08;13.20;99.90
23069;DHT22;11702;50.856;4.348;2022-07-06T03:06:33;13.10;99.90
23069;DHT22;11702;50.856;4.348;2022-07-06T03:08:59;13.20;99.90
23069;DHT22;11702;50.856;4.348;2022-07-06T03:11:25;13.20;99.90
23069;DHT22;11702;50.856;4.348;2022-07-06T03:13:51;13.30;99.90
23069;DHT22;11702;50.856;4.348;2022-07-06T03:16:17;13.30;99.90
23069;DHT22;11702;50.856;4.348;2022-07-06T03:18:43;13.30;99.90
23069;DHT22;11702;50.856;4.348;2022-07-06T03:21:08;13.20;99.90
23069;DHT22;11702;50.856;4.348;2022-07-06T03:23:34;13.20;99.90
23069;DHT22;11702;50.856;4.348;2022-07-06T03:26:00;13.20;99.90
23069;DHT22;11702;50.856;4.348;2022-07-06T03:28:25;13.20;99.90
23069;DHT22;11702;50.856;4.348;2022-07-06T03:30:51;13.20;99.90
23069;DHT22;11702;50.856;4.348;2022-07-06T03:33:17;13.30;99.90
23069;DHT22;11702;50.856;4.348;2022-07-06T03:35:42;13.20;99.90
23069;DHT22;11702;50.856;4.348;2022-07-06T03:38:08;13.20;99.90
23069;DHT22;11702;50.856;4.348;2022-07-06T03:40:33;13.20;99.90
23069;DHT22;11702;50.856;4.348;2022-07-06T03:42:59;13.20;99.90
23069;DHT22;11702;50.856;4.348;2022-07-06T03:45:25;13.20;99.90
23069;DHT22;11702;50.856;4.348;2022-07-06T03:47:50;13.20;99.90
23069;DHT22;11702;50.856;4.348;2022-07-06T03:50:17;13.20;99.90
23069;DHT22;11702;50.856;4.348;2022-07-06T03:52:43;13.30;99.90
23069;DHT22;11702;50.856;4.348;2022-07-06T03:55:10;13.30;99.90
23069;DHT22;11702;50.856;4.348;2022-07-06T03:57:37;13.40;99.90
23069;DHT22;11702;50.856;4.348;2022-07-06T04:00:04;13.50;99.90
23069;DHT22;11702;50.856;4.348;2022-07-06T04:02:30;13.60;99.90
23069;DHT22;11702;50.856;4.348;2022-07-06T04:04:55;13.70;99.90
23069;DHT22;11702;50.856;4.348;2022-07-06T04:07:21;13.70;99.90
23069;DHT22;11702;50.856;4.348;2022-07-06T04:09:47;13.70;99.90
23069;DHT22;11702;50.856;4.348;2022-07-06T04:12:12;13.70;99.90
23069;DHT22;11702;50.856;4.348;2022-07-06T04:14:38;13.80;99.90
23069;DHT22;11702;50.856;4.348;2022-07-06T04:17:04;13.90;99.90
23069;DHT22;11702;50.856;4.348;2022-07-06T04:19:50;14.00;99.90
23069;DHT22;11702;50.856;4.348;2022-07-06T04:22:16;14.30;99.90
23069;DHT22;11702;50.856;4.348;2022-07-06T04:24:42;14.60;99.90
23069;DHT22;11702;50.856;4.348;2022-07-06T04:27:08;14.70;99.90
23069;DHT22;11702;50.856;4.348;2022-07-06T04:29:33;14.80;99.90
23069;DHT22;11702;50.856;4.348;2022-07-06T04:31:59;14.70;99.90
23069;DHT22;11702;50.856;4.348;2022-07-06T04:34:24;14.80;99.90
23069;DHT22;11702;50.856;4.348;2022-07-06T04:36:50;14.80;99.90
23069;DHT22;11702;50.856;4.348;2022-07-06T04:39:15;15.10;99.90
23069;DHT22;11702;50.856;4.348;2022-07-06T04:41:41;15.40;99.90
23069;DHT22;11702;50.856;4.348;2022-07-06T04:44:07;15.70;99.90
23069;DHT22;11702;50.856;4.348;2022-07-06T04:46:32;16.00;99.90
23069;DHT22;11702;50.856;4.348;2022-07-06T04:48:58;16.40;99.90
23069;DHT22;11702;50.856;4.348;2022-07-06T04:51:23;16.90;99.90
23069;DHT22;11702;50.856;4.348;2022-07-06T04:53:49;17.30;99.90
23069;DHT22;11702;50.856;4.348;2022-07-06T04:56:15;17.90;99.90
23069;DHT22;11702;50.856;4.348;2022-07-06T04:58:41;18.40;99.90
23069;DHT22;11702;50.856;4.348;2022-07-06T05:01:06;18.90;99.90
23069;DHT22;11702;50.856;4.348;2022-07-06T05:03:33;19.20;99.90
23069;DHT22;11702;50.856;4.348;2022-07-06T05:06:04;19.00;99.90
23069;DHT22;11702;50.856;4.348;2022-07-06T05:08:30;19.00;99.90
23069;DHT22;11702;50.856;4.348;2022-07-06T05:10:56;19.20;99.90
23069;DHT22;11702;50.856;4.348;2022-07-06T05:13:22;19.30;99.90
23069;DHT22;11702;50.856;4.348;2022-07-06T05:15:48;19.30;99.90
23069;DHT22;11702;50.856;4.348;2022-07-06T05:18:14;19.20;99.90
23069;DHT22;11702;50.856;4.348;2022-07-06T05:20:39;19.10;99.90
23069;DHT22;11702;50.856;4.348;2022-07-06T05:23:05;18.80;99.90
23069;DHT22;11702;50.856;4.348;2022-07-06T05:25:31;18.60;99.90
23069;DHT22;11702;50.856;4.348;2022-07-06T05:27:58;18.30;99.90
23069;DHT22;11702;50.856;4.348;2022-07-06T05:30:25;18.00;99.90
23069;DHT22;11702;50.856;4.348;2022-07-06T05:32:50;17.80;99.90
23069;DHT22;11702;50.856;4.348;2022-07-06T05:35:16;17.70;99.90
23069;DHT22;11702;50.856;4.348;2022-07-06T05:37:42;17.70;99.90
23069;DHT22;11702;50.856;4.348;2022-07-06T05:40:08;17.70;99.90
23069;DHT22;11702;50.856;4.348;2022-07-06T05:42:34;17.70;99.90
23069;DHT22;11702;50.856;4.348;2022-07-06T05:44:59;17.70;99.90
23069;DHT22;11702;50.856;4.348;2022-07-06T05:47:25;17.70;99.90
23069;DHT22;11702;50.856;4.348;2022-07-06T05:50:09;18.00;99.90
23069;DHT22;11702;50.856;4.348;2022-07-06T05:52:59;18.30;99.90
23069;DHT22;11702;50.856;4.348;2022-07-06T05:55:25;18.30;99.90
23069;DHT22;11702;50.856;4.348;2022-07-06T05:57:50;18.50;99.90
23069;DHT22;11702;50.856;4.348;2022-07-06T06:00:16;18.70;99.90
23069;DHT22;11702;50.856;4.348;2022-07-06T06:02:43;18.80;99.90
23069;DHT22;11702;50.856;4.348;2022-07-06T06:05:10;18.90;99.90
23069;DHT22;11702;50.856;4.348;2022-07-06T06:07:37;19.10;99.90
23069;DHT22;11702;50.856;4.348;2022-07-06T06:10:05;19.40;99.90
23069;DHT22;11702;50.856;4.348;2022-07-06T06:12:31;19.60;99.90
23069;DHT22;11702;50.856;4.348;2022-07-06T06:14:57;19.80;99.90
23069;DHT22;11702;50.856;4.348;2022-07-06T06:17:22;19.70;99.90
23069;DHT22;11702;50.856;4.348;2022-07-06T06:19:48;19.60;99.90
23069;DHT22;11702;50.856;4.348;2022-07-06T06:22:14;19.70;99.90
23069;DHT22;11702;50.856;4.348;2022-07-06T06:24:39;19.80;99.90
23069;DHT22;11702;50.856;4.348;2022-07-06T06:27:05;20.00;99.90
23069;DHT22;11702;50.856;4.348;2022-07-06T06:29:32;20.40;99.90
23069;DHT22;11702;50.856;4.348;2022-07-06T06:31:58;19.90;99.90
23069;DHT22;11702;50.856;4.348;2022-07-06T06:34:23;20.20;99.90
23069;DHT22;11702;50.856;4.348;2022-07-06T06:36:49;20.40;99.90
23069;DHT22;11702;50.856;4.348;2022-07-06T06:39:32;20.90;99.90
23069;DHT22;11702;50.856;4.348;2022-07-06T06:42:23;21.00;99.90
23069;DHT22;11702;50.856;4.348;2022-07-06T06:44:59;21.20;99.90
23069;DHT22;11702;50.856;4.348;2022-07-06T06:47:52;21.30;99.90
23069;DHT22;11702;50.856;4.348;2022-07-06T06:50:44;21.70;99.90
23069;DHT22;11702;50.856;4.348;2022-07-06T06:53:29;21.70;99.40
23069;DHT22;11702;50.856;4.348;2022-07-06T06:56:01;21.80;99.10
23069;DHT22;11702;50.856;4.348;2022-07-06T06:58:30;22.00;99.00
23069;DHT22;11702;50.856;4.348;2022-07-06T07:00:56;22.10;98.20
23069;DHT22;11702;50.856;4.348;2022-07-06T07:03:22;22.30;97.80
23069;DHT22;11702;50.856;4.348;2022-07-06T07:05:48;22.40;98.30
23069;DHT22;11702;50.856;4.348;2022-07-06T07:08:23;22.40;96.30
23069;DHT22;11702;50.856;4.348;2022-07-06T07:10:57;22.50;96.30
23069;DHT22;11702;50.856;4.348;2022-07-06T07:13:23;22.50;96.30
23069;DHT22;11702;50.856;4.348;2022-07-06T07:15:52;22.50;96.20
23069;DHT22;11702;50.856;4.348;2022-07-06T07:18:17;22.50;96.10
23069;DHT22;11702;50.856;4.348;2022-07-06T07:20:43;22.70;96.30
23069;DHT22;11702;50.856;4.348;2022-07-06T07:23:08;22.90;96.10
23069;DHT22;11702;50.856;4.348;2022-07-06T07:25:34;22.70;94.30
23069;DHT22;11702;50.856;4.348;2022-07-06T07:28:00;22.20;94.20
23069;DHT22;11702;50.856;4.348;2022-07-06T07:30:25;22.20;94.20
23069;DHT22;11702;50.856;4.348;2022-07-06T07:32:51;21.90;94.70
23069;DHT22;11702;50.856;4.348;2022-07-06T07:35:17;21.50;95.30
23069;DHT22;11702;50.856;4.348;2022-07-06T07:37:43;21.30;96.90
23069;DHT22;11702;50.856;4.348;2022-07-06T07:40:08;21.50;96.70
23069;DHT22;11702;50.856;4.348;2022-07-06T07:42:35;21.60;95.80
23069;DHT22;11702;50.856;4.348;2022-07-06T07:45:01;21.60;94.80
23069;DHT22;11702;50.856;4.348;2022-07-06T07:47:26;21.60;95.90
23069;DHT22;11702;50.856;4.348;2022-07-06T07:49:52;21.60;96.40
23069;DHT22;11702;50.856;4.348;2022-07-06T07:52:18;21.80;96.00
23069;DHT22;11702;50.856;4.348;2022-07-06T07:54:43;21.90;96.10
23069;DHT22;11702;50.856;4.348;2022-07-06T07:57:09;21.80;95.40
23069;DHT22;11702;50.856;4.348;2022-07-06T07:59:35;21.70;94.50
23069;DHT22;11702;50.856;4.348;2022-07-06T08:02:01;21.50;94.50
23069;DHT22;11702;50.856;4.348;2022-07-06T08:04:27;21.40;94.90
23069;DHT22;11702;50.856;4.348;2022-07-06T08:06:52;21.20;94.90
23069;DHT22;11702;50.856;4.348;2022-07-06T08:09:18;21.20;95.50
23069;DHT22;11702;50.856;4.348;2022-07-06T08:11:44;21.40;95.40
23069;DHT22;11702;50.856;4.348;2022-07-06T08:14:09;21.80;95.60
23069;DHT22;11702;50.856;4.348;2022-07-06T08:16:35;22.20;95.60
23069;DHT22;11702;50.856;4.348;2022-07-06T08:19:01;22.50;95.00
23069;DHT22;11702;50.856;4.348;2022-07-06T08:21:26;22.60;94.30
23069;DHT22;11702;50.856;4.348;2022-07-06T08:23:54;22.50;93.90
23069;DHT22;11702;50.856;4.348;2022-07-06T08:26:20;22.40;93.90
23069;DHT22;11702;50.856;4.348;2022-07-06T08:28:45;22.40;94.70
23069;DHT22;11702;50.856;4.348;2022-07-06T08:31:11;22.40;94.00
23069;DHT22;11702;50.856;4.348;2022-07-06T08:33:37;22.20;94.30
23069;DHT22;11702;50.856;4.348;2022-07-06T08:36:03;22.20;95.00
23069;DHT22;11702;50.856;4.348;2022-07-06T08:38:29;22.10;94.50
23069;DHT22;11702;50.856;4.348;2022-07-06T08:40:55;22.10;95.30
23069;DHT22;11702;50.856;4.348;2022-07-06T08:43:21;22.20;95.40
23069;DHT22;11702;50.856;4.348;2022-07-06T08:45:49;22.50;95.40
23069;DHT22;11702;50.856;4.348;2022-07-06T08:48:16;22.50;94.70
23069;DHT22;11702;50.856;4.348;2022-07-06T08:50:43;22.70;94.60
23069;DHT22;11702;50.856;4.348;2022-07-06T08:53:09;22.90;94.30
23069;DHT22;11702;50.856;4.348;2022-07-06T08:55:35;22.90;94.70
23069;DHT22;11702;50.856;4.348;2022-07-06T08:58:01;22.50;94.20
23069;DHT22;11702;50.856;4.348;2022-07-06T09:00:27;22.30;95.10
23069;DHT22;11702;50.856;4.348;2022-07-06T09:02:53;22.50;95.30
23069;DHT22;11702;50.856;4.348;2022-07-06T09:05:23;22.70;94.60
23069;DHT22;11702;50.856;4.348;2022-07-06T09:07:50;22.90;94.50
23069;DHT22;11702;50.856;4.348;2022-07-06T09:10:20;23.50;94.00
23069;DHT22;11702;50.856;4.348;2022-07-06T09:12:47;23.90;92.90
23069;DHT22;11702;50.856;4.348;2022-07-06T09:15:13;24.30;92.20
23069;DHT22;11702;50.856;4.348;2022-07-06T09:17:40;24.30;92.00
23069;DHT22;11702;50.856;4.348;2022-07-06T09:20:11;24.00;92.30
23069;DHT22;11702;50.856;4.348;2022-07-06T09:22:38;23.90;92.30
23069;DHT22;11702;50.856;4.348;2022-07-06T09:25:04;23.50;92.50
23069;DHT22;11702;50.856;4.348;2022-07-06T09:27:31;23.10;92.90
23069;DHT22;11702;50.856;4.348;2022-07-06T09:30:00;22.30;94.40
23069;DHT22;11702;50.856;4.348;2022-07-06T09:32:28;21.90;95.10
23069;DHT22;11702;50.856;4.348;2022-07-06T09:34:54;22.10;95.50
23069;DHT22;11702;50.856;4.348;2022-07-06T09:37:21;22.70;95.60
23069;DHT22;11702;50.856;4.348;2022-07-06T09:39:47;23.10;94.50
23069;DHT22;11702;50.856;4.348;2022-07-06T09:42:13;23.70;93.80
23069;DHT22;11702;50.856;4.348;2022-07-06T09:44:40;23.90;93.50
23069;DHT22;11702;50.856;4.348;2022-07-06T09:47:11;23.80;92.60
23069;DHT22;11702;50.856;4.348;2022-07-06T09:49:38;24.10;93.10
23069;DHT22;11702;50.856;4.348;2022-07-06T09:52:06;24.10;93.50
23069;DHT22;11702;50.856;4.348;2022-07-06T09:54:34;24.50;93.00
23069;DHT22;11702;50.856;4.348;2022-07-06T09:57:01;24.80;92.40
23069;DHT22;11702;50.856;4.348;2022-07-06T09:59:28;24.80;92.30
23069;DHT22;11702;50.856;4.348;2022-07-06T10:02:05;24.90;91.60
23069;DHT22;11702;50.856;4.348;2022-07-06T10:04:33;24.90;91.40
23069;DHT22;11702;50.856;4.348;2022-07-06T10:06:59;24.40;91.10
23069;DHT22;11702;50.856;4.348;2022-07-06T10:09:28;24.20;92.20
23069;DHT22;11702;50.856;4.348;2022-07-06T10:12:01;24.40;91.60
23069;DHT22;11702;50.856;4.348;2022-07-06T10:14:29;24.20;92.00
23069;DHT22;11702;50.856;4.348;2022-07-06T10:16:57;23.90;92.60
23069;DHT22;11702;50.856;4.348;2022-07-06T10:19:23;24.40;91.40
23069;DHT22;11702;50.856;4.348;2022-07-06T10:21:50;24.80;91.30
23069;DHT22;11702;50.856;4.348;2022-07-06T10:24:19;25.00;90.50
23069;DHT22;11702;50.856;4.348;2022-07-06T10:26:45;25.00;90.70
23069;DHT22;11702;50.856;4.348;2022-07-06T10:29:11;24.50;91.00
23069;DHT22;11702;50.856;4.348;2022-07-06T10:31:40;24.80;91.30
23069;DHT22;11702;50.856;4.348;2022-07-06T10:34:12;24.70;89.80
23069;DHT22;11702;50.856;4.348;2022-07-06T10:36:43;24.80;92.20
23069;DHT22;11702;50.856;4.348;2022-07-06T10:39:09;24.30;91.70
23069;DHT22;11702;50.856;4.348;2022-07-06T10:41:54;24.50;91.40
23069;DHT22;11702;50.856;4.348;2022-07-06T10:44:24;23.60;91.80
23069;DHT22;11702;50.856;4.348;2022-07-06T10:46:51;23.30;92.80
23069;DHT22;11702;50.856;4.348;2022-07-06T10:49:18;22.90;93.00
23069;DHT22;11702;50.856;4.348;2022-07-06T10:51:43;22.90;93.20
23069;DHT22;11702;50.856;4.348;2022-07-06T10:54:09;23.30;93.10
23069;DHT22;11702;50.856;4.348;2022-07-06T10:56:39;23.90;93.10
23069;DHT22;11702;50.856;4.348;2022-07-06T10:59:15;24.60;93.00
23069;DHT22;11702;50.856;4.348;2022-07-06T11:02:11;25.20;92.00
23069;DHT22;11702;50.856;4.348;2022-07-06T11:04:38;25.80;91.50
23069;DHT22;11702;50.856;4.348;2022-07-06T11:07:11;25.90;90.70
23069;DHT22;11702;50.856;4.348;2022-07-06T11:09:37;26.20;89.30
23069;DHT22;11702;50.856;4.348;2022-07-06T11:12:17;26.50;89.50
23069;DHT22;11702;50.856;4.348;2022-07-06T11:14:47;26.60;89.40
23069;DHT22;11702;50.856;4.348;2022-07-06T11:17:13;27.00;88.20
23069;DHT22;11702;50.856;4.348;2022-07-06T11:19:49;27.00;86.10
23069;DHT22;11702;50.856;4.348;2022-07-06T11:22:16;26.70;87.40
23069;DHT22;11702;50.856;4.348;2022-07-06T11:24:44;26.90;86.90
23069;DHT22;11702;50.856;4.348;2022-07-06T11:27:11;26.70;85.80
23069;DHT22;11702;50.856;4.348;2022-07-06T11:29:37;26.40;85.90
23069;DHT22;11702;50.856;4.348;2022-07-06T11:32:05;26.10;85.50
23069;DHT22;11702;50.856;4.348;2022-07-06T11:34:36;25.60;88.20
23069;DHT22;11702;50.856;4.348;2022-07-06T11:37:04;25.50;87.90
23069;DHT22;11702;50.856;4.348;2022-07-06T11:39:34;25.40;87.70
23069;DHT22;11702;50.856;4.348;2022-07-06T11:42:01;25.50;88.70
23069;DHT22;11702;50.856;4.348;2022-07-06T11:44:29;25.50;89.80
23069;DHT22;11702;50.856;4.348;2022-07-06T11:46:55;26.00;87.70
23069;DHT22;11702;50.856;4.348;2022-07-06T11:49:23;26.00;88.50
23069;DHT22;11702;50.856;4.348;2022-07-06T11:51:49;26.40;85.80
23069;DHT22;11702;50.856;4.348;2022-07-06T11:54:16;26.60;85.70
23069;DHT22;11702;50.856;4.348;2022-07-06T11:59:23;26.60;85.10
23069;DHT22;11702;50.856;4.348;2022-07-06T12:01:49;26.70;82.70
23069;DHT22;11702;50.856;4.348;2022-07-06T12:04:15;26.20;81.40
23069;DHT22;11702;50.856;4.348;2022-07-06T12:06:43;25.80;82.90
23069;DHT22;11702;50.856;4.348;2022-07-06T12:09:09;25.20;85.90
23069;DHT22;11702;50.856;4.348;2022-07-06T12:11:36;25.20;85.80
23069;DHT22;11702;50.856;4.348;2022-07-06T12:14:11;25.20;85.50
23069;DHT22;11702;50.856;4.348;2022-07-06T12:16:38;24.90;87.30
23069;DHT22;11702;50.856;4.348;2022-07-06T12:19:05;24.90;87.40
23069;DHT22;11702;50.856;4.348;2022-07-06T12:21:33;25.40;87.70
23069;DHT22;11702;50.856;4.348;2022-07-06T12:23:59;25.30;86.90
23069;DHT22;11702;50.856;4.348;2022-07-06T12:26:27;25.40;86.40
23069;DHT22;11702;50.856;4.348;2022-07-06T12:29:02;25.40;86.20
23069;DHT22;11702;50.856;4.348;2022-07-06T12:31:35;25.10;86.30
23069;DHT22;11702;50.856;4.348;2022-07-06T12:34:01;24.60;88.60
23069;DHT22;11702;50.856;4.348;2022-07-06T12:36:27;24.20;88.90
23069;DHT22;11702;50.856;4.348;2022-07-06T12:38:53;24.00;90.30
23069;DHT22;11702;50.856;4.348;2022-07-06T12:41:31;23.70;90.70
23069;DHT22;11702;50.856;4.348;2022-07-06T12:44:08;23.70;91.30
23069;DHT22;11702;50.856;4.348;2022-07-06T12:46:36;23.70;91.50
23069;DHT22;11702;50.856;4.348;2022-07-06T12:49:11;23.80;92.10
23069;DHT22;11702;50.856;4.348;2022-07-06T12:52:00;24.00;91.70
23069;DHT22;11702;50.856;4.348;2022-07-06T12:54:35;24.40;91.00
23069;DHT22;11702;50.856;4.348;2022-07-06T12:57:11;24.50;90.20
23069;DHT22;11702;50.856;4.348;2022-07-06T12:59:41;24.90;89.20
23069;DHT22;11702;50.856;4.348;2022-07-06T13:02:09;25.20;88.10
23069;DHT22;11702;50.856;4.348;2022-07-06T13:04:36;25.20;88.10
23069;DHT22;11702;50.856;4.348;2022-07-06T13:07:02;25.30;86.90
23069;DHT22;11702;50.856;4.348;2022-07-06T13:09:29;25.50;86.90
23069;DHT22;11702;50.856;4.348;2022-07-06T13:11:55;25.70;85.50
23069;DHT22;11702;50.856;4.348;2022-07-06T13:14:21;26.00;85.20
23069;DHT22;11702;50.856;4.348;2022-07-06T13:16:48;25.90;85.50
23069;DHT22;11702;50.856;4.348;2022-07-06T13:19:13;25.10;86.80
23069;DHT22;11702;50.856;4.348;2022-07-06T13:21:39;24.90;87.80
23069;DHT22;11702;50.856;4.348;2022-07-06T13:24:06;24.50;88.70
23069;DHT22;11702;50.856;4.348;2022-07-06T13:26:32;24.60;90.00
23069;DHT22;11702;50.856;4.348;2022-07-06T13:29:02;24.80;90.20
23069;DHT22;11702;50.856;4.348;2022-07-06T13:31:29;25.50;89.60
23069;DHT22;11702;50.856;4.348;2022-07-06T13:33:56;25.90;89.20
23069;DHT22;11702;50.856;4.348;2022-07-06T13:36:25;26.20;87.30
23069;DHT22;11702;50.856;4.348;2022-07-06T13:38:51;26.30;86.20
23069;DHT22;11702;50.856;4.348;2022-07-06T13:41:17;26.30;87.60
23069;DHT22;11702;50.856;4.348;2022-07-06T13:43:42;26.40;86.20
23069;DHT22;11702;50.856;4.348;2022-07-06T13:46:08;26.20;85.80
23069;DHT22;11702;50.856;4.348;2022-07-06T13:48:36;26.00;87.70
23069;DHT22;11702;50.856;4.348;2022-07-06T13:51:01;25.60;87.30
23069;DHT22;11702;50.856;4.348;2022-07-06T13:53:28;25.20;88.50
23069;DHT22;11702;50.856;4.348;2022-07-06T13:55:55;25.10;89.30
23069;DHT22;11702;50.856;4.348;2022-07-06T13:58:22;25.30;89.30
23069;DHT22;11702;50.856;4.348;2022-07-06T14:00:50;25.50;88.50
23069;DHT22;11702;50.856;4.348;2022-07-06T14:03:16;25.90;87.20
23069;DHT22;11702;50.856;4.348;2022-07-06T14:05:42;25.70;86.30
23069;DHT22;11702;50.856;4.348;2022-07-06T14:08:07;25.50;87.00
23069;DHT22;11702;50.856;4.348;2022-07-06T14:10:33;25.20;88.50
23069;DHT22;11702;50.856;4.348;2022-07-06T14:12:59;25.10;89.00
23069;DHT22;11702;50.856;4.348;2022-07-06T14:15:25;25.10;88.90
23069;DHT22;11702;50.856;4.348;2022-07-06T14:17:51;25.00;88.70
23069;DHT22;11702;50.856;4.348;2022-07-06T14:20:17;25.30;89.00
23069;DHT22;11702;50.856;4.348;2022-07-06T14:22:44;25.30;88.60
23069;DHT22;11702;50.856;4.348;2022-07-06T14:25:10;25.70;87.90
23069;DHT22;11702;50.856;4.348;2022-07-06T14:27:36;25.90;87.50
23069;DHT22;11702;50.856;4.348;2022-07-06T14:30:03;26.00;86.30
23069;DHT22;11702;50.856;4.348;2022-07-06T14:32:29;25.40;87.80
23069;DHT22;11702;50.856;4.348;2022-07-06T14:34:55;25.40;88.40
23069;DHT22;11702;50.856;4.348;2022-07-06T14:37:20;25.60;88.40
23069;DHT22;11702;50.856;4.348;2022-07-06T14:39:46;26.10;88.20
23069;DHT22;11702;50.856;4.348;2022-07-06T14:42:14;26.40;86.90
23069;DHT22;11702;50.856;4.348;2022-07-06T14:44:39;26.80;85.30
23069;DHT22;11702;50.856;4.348;2022-07-06T14:47:05;26.80;85.60
23069;DHT22;11702;50.856;4.348;2022-07-06T14:49:31;26.60;85.50
23069;DHT22;11702;50.856;4.348;2022-07-06T14:51:56;26.60;86.20
23069;DHT22;11702;50.856;4.348;2022-07-06T14:54:23;26.60;86.40
23069;DHT22;11702;50.856;4.348;2022-07-06T14:56:49;26.70;86.40
23069;DHT22;11702;50.856;4.348;2022-07-06T14:59:15;26.50;85.80
23069;DHT22;11702;50.856;4.348;2022-07-06T15:01:41;26.30;85.80
23069;DHT22;11702;50.856;4.348;2022-07-06T15:04:07;26.30;86.40
23069;DHT22;11702;50.856;4.348;2022-07-06T15:06:33;26.20;86.60
23069;DHT22;11702;50.856;4.348;2022-07-06T15:08:59;26.00;86.90
23069;DHT22;11702;50.856;4.348;2022-07-06T15:11:29;26.00;86.20
23069;DHT22;11702;50.856;4.348;2022-07-06T15:13:55;25.80;87.30
23069;DHT22;11702;50.856;4.348;2022-07-06T15:16:21;26.00;87.20
23069;DHT22;11702;50.856;4.348;2022-07-06T15:18:46;26.10;86.90
23069;DHT22;11702;50.856;4.348;2022-07-06T15:21:12;26.20;86.40
23069;DHT22;11702;50.856;4.348;2022-07-06T15:23:37;25.80;86.60
23069;DHT22;11702;50.856;4.348;2022-07-06T15:26:03;25.60;88.30
23069;DHT22;11702;50.856;4.348;2022-07-06T15:28:29;25.50;88.10
23069;DHT22;11702;50.856;4.348;2022-07-06T15:30:55;25.60;87.40
23069;DHT22;11702;50.856;4.348;2022-07-06T15:33:21;25.70;87.50